createdAt,value
2024-02-20T00:01:28.078Z,16.08
2024-02-20T00:03:55.616Z,16.08
2024-02-20T00:06:22.245Z,16.08
2024-02-20T00:08:48.905Z,16.08
2024-02-20T00:11:15.789Z,16.08
2024-02-20T00:13:42.463Z,16.08
2024-02-20T00:16:09.174Z,16.07
2024-02-20T00:18:36.901Z,16.07
2024-02-20T00:21:03.649Z,16.06
2024-02-20T00:23:30.168Z,16.06
2024-02-20T00:25:56.768Z,16.07
2024-02-20T00:28:23.366Z,16.07
2024-02-20T00:30:51.792Z,16.04
2024-02-20T00:33:18.417Z,16.06
2024-02-20T00:35:45.033Z,16.05
2024-02-20T00:38:12.191Z,16.05
2024-02-20T00:40:40.806Z,16.04
2024-02-20T00:43:07.544Z,16.04
2024-02-20T00:45:34.374Z,16.05
2024-02-20T00:48:00.989Z,16.04
2024-02-20T00:50:29.753Z,16.03
2024-02-20T00:52:56.478Z,16.04
2024-02-20T00:55:23.089Z,16.03
2024-02-20T00:57:49.674Z,16.03
2024-02-20T01:00:16.333Z,16.03
2024-02-20T01:02:43.220Z,16.04
2024-02-20T01:05:10.970Z,16.03
2024-02-20T01:07:39.074Z,16.02
2024-02-20T01:10:05.887Z,16.03
2024-02-20T01:12:32.711Z,16.03
2024-02-20T01:14:59.588Z,16.02
2024-02-20T01:17:26.202Z,16.03
2024-02-20T01:19:52.879Z,16.02
2024-02-20T01:22:19.460Z,16.03
2024-02-20T01:24:46.083Z,16.03
2024-02-20T01:27:12.656Z,16.03
2024-02-20T01:29:39.177Z,16.02
2024-02-20T01:32:06.115Z,16.02
2024-02-20T01:34:33.332Z,16.03
2024-02-20T01:37:00.023Z,16.03
2024-02-20T01:39:27.310Z,16.02
2024-02-20T01:41:54.107Z,16.02
2024-02-20T01:44:20.624Z,16.02
2024-02-20T01:46:47.487Z,16.02
2024-02-20T01:49:14.394Z,16.02
2024-02-20T01:51:41.088Z,16.03
2024-02-20T01:54:07.864Z,16.03
2024-02-20T01:56:36.598Z,16.03
2024-02-20T01:59:04.508Z,16.02
2024-02-20T02:01:31.594Z,16.02
2024-02-20T02:03:58.446Z,16.01
2024-02-20T02:06:32.185Z,16.02
2024-02-20T02:08:58.786Z,15.98
2024-02-20T02:11:25.593Z,16.04
2024-02-20T02:13:52.369Z,16.03
2024-02-20T02:16:18.993Z,16.02
2024-02-20T02:18:45.685Z,15.99
2024-02-20T02:21:13.075Z,15.99
2024-02-20T02:23:39.612Z,16.00
2024-02-20T02:26:15.310Z,15.97
2024-02-20T02:28:43.463Z,15.98
2024-02-20T02:31:10.073Z,15.99
2024-02-20T02:33:37.018Z,15.99
2024-02-20T02:36:03.828Z,15.99
2024-02-20T02:38:31.166Z,16.00
2024-02-20T02:40:57.703Z,15.99
2024-02-20T02:43:24.246Z,16.00
2024-02-20T02:45:50.928Z,15.98
2024-02-20T02:48:18.105Z,16.00
2024-02-20T02:50:44.650Z,15.99
2024-02-20T02:53:11.272Z,16.00
2024-02-20T02:55:38.016Z,16.01
2024-02-20T02:58:06.510Z,15.99
2024-02-20T03:00:33.260Z,16.00
2024-02-20T03:02:59.955Z,16.00
2024-02-20T03:05:26.921Z,16.00
2024-02-20T03:07:53.577Z,16.00
2024-02-20T03:10:21.341Z,15.99
2024-02-20T03:12:48.181Z,16.00
2024-02-20T03:15:15.237Z,16.01
2024-02-20T03:17:45.578Z,16.01
2024-02-20T03:20:16.089Z,16.01
2024-02-20T03:22:43.627Z,16.01
2024-02-20T03:25:10.467Z,16.00
2024-02-20T03:27:40.450Z,16.01
2024-02-20T03:30:07.910Z,16.00
2024-02-20T03:32:35.004Z,16.01
2024-02-20T03:35:01.722Z,16.01
2024-02-20T03:37:28.450Z,15.98
2024-02-20T03:39:55.066Z,16.00
2024-02-20T03:42:22.171Z,16.00
2024-02-20T03:44:48.833Z,15.99
2024-02-20T03:47:15.402Z,16.00
2024-02-20T03:49:42.247Z,16.00
2024-02-20T03:52:08.892Z,16.00
2024-02-20T03:54:35.451Z,15.98
2024-02-20T03:57:02.109Z,15.98
2024-02-20T03:59:29.298Z,15.97
2024-02-20T04:01:56.269Z,15.98
2024-02-20T04:04:22.914Z,15.98
2024-02-20T04:06:49.645Z,15.98
2024-02-20T04:09:16.407Z,15.97
2024-02-20T04:11:43.117Z,15.97
2024-02-20T04:14:09.695Z,15.97
2024-02-20T04:16:36.638Z,15.96
2024-02-20T04:19:03.372Z,15.96
2024-02-20T04:21:30.033Z,15.97
2024-02-20T04:23:57.469Z,15.96
2024-02-20T04:26:24.096Z,15.96
2024-02-20T04:28:50.679Z,15.96
2024-02-20T04:31:17.246Z,15.95
2024-02-20T04:33:43.859Z,15.96
2024-02-20T04:36:10.725Z,15.96
2024-02-20T04:38:37.299Z,15.95
2024-02-20T04:41:04.006Z,15.96
2024-02-20T04:43:30.628Z,15.95
2024-02-20T04:45:57.248Z,15.95
2024-02-20T04:48:23.890Z,15.95
2024-02-20T04:50:50.521Z,15.95
2024-02-20T04:53:17.117Z,15.95
2024-02-20T04:55:43.756Z,15.95
2024-02-20T04:58:10.838Z,15.95
2024-02-20T05:00:37.657Z,15.95
2024-02-20T05:03:05.809Z,15.95
2024-02-20T05:05:32.702Z,15.94
2024-02-20T05:07:59.292Z,15.94
2024-02-20T05:10:26.078Z,15.95
2024-02-20T05:12:52.718Z,15.93
2024-02-20T05:15:19.307Z,15.95
2024-02-20T05:17:45.902Z,15.94
2024-02-20T05:20:12.624Z,15.94
2024-02-20T05:22:39.567Z,15.94
2024-02-20T05:25:07.890Z,15.94
2024-02-20T05:27:34.759Z,15.93
2024-02-20T05:30:01.426Z,15.94
2024-02-20T05:32:28.215Z,15.93
2024-02-20T05:34:54.967Z,15.94
2024-02-20T05:37:21.572Z,15.93
2024-02-20T05:39:48.127Z,15.93
2024-02-20T05:42:14.657Z,15.93
2024-02-20T05:44:41.194Z,15.93
2024-02-20T05:47:07.984Z,15.93
2024-02-20T05:49:34.868Z,15.92
2024-02-20T05:52:01.552Z,15.92
2024-02-20T05:54:28.141Z,15.90
2024-02-20T05:56:54.714Z,15.90
2024-02-20T05:59:21.276Z,15.90
2024-02-20T06:01:47.928Z,15.90
2024-02-20T06:04:15.160Z,15.89
2024-02-20T06:06:43.386Z,15.89
2024-02-20T06:09:10.144Z,15.88
2024-02-20T06:11:36.800Z,15.88
2024-02-20T06:14:04.037Z,15.87
2024-02-20T06:16:30.725Z,15.87
2024-02-20T06:18:58.048Z,15.87
2024-02-20T06:21:24.918Z,15.86
2024-02-20T06:23:52.261Z,15.85
2024-02-20T06:26:18.972Z,15.86
2024-02-20T06:28:45.783Z,15.85
2024-02-20T06:31:12.690Z,15.84
2024-02-20T06:33:43.241Z,15.83
2024-02-20T06:36:10.469Z,15.84
2024-02-20T06:38:37.909Z,15.83
2024-02-20T06:41:05.574Z,15.83
2024-02-20T06:43:32.287Z,15.83
2024-02-20T06:45:59.099Z,15.81
2024-02-20T06:48:25.883Z,15.81
2024-02-20T06:50:52.996Z,15.81
2024-02-20T06:53:19.599Z,15.81
2024-02-20T06:55:46.285Z,15.79
2024-02-20T06:58:13.038Z,15.78
2024-02-20T07:00:40.173Z,15.79
2024-02-20T07:03:08.191Z,15.79
2024-02-20T07:05:35.388Z,15.78
2024-02-20T07:08:02.345Z,15.78
2024-02-20T07:10:29.245Z,15.78
2024-02-20T07:12:58.834Z,15.77
2024-02-20T07:15:25.525Z,15.78
2024-02-20T07:17:52.102Z,15.78
2024-02-20T07:20:19.121Z,15.79
2024-02-20T07:22:50.023Z,15.78
2024-02-20T07:25:20.710Z,15.78
2024-02-20T07:27:47.906Z,15.79
2024-02-20T07:30:15.086Z,15.78
2024-02-20T07:32:43.185Z,15.78
2024-02-20T07:35:14.207Z,15.78
2024-02-20T07:37:41.819Z,15.79
2024-02-20T07:40:13.333Z,15.78
2024-02-20T07:42:41.138Z,15.79
2024-02-20T07:45:08.928Z,15.79
2024-02-20T07:47:38.618Z,15.79
2024-02-20T07:50:06.443Z,15.80
2024-02-20T07:52:33.946Z,15.80
2024-02-20T07:55:01.009Z,15.81
2024-02-20T07:57:27.757Z,15.80
2024-02-20T07:59:54.587Z,15.82
2024-02-20T08:02:21.217Z,15.81
2024-02-20T08:04:48.200Z,15.82
2024-02-20T08:07:15.028Z,15.82
2024-02-20T08:09:41.661Z,15.83
2024-02-20T08:12:08.265Z,15.83
2024-02-20T08:14:35.486Z,15.84
2024-02-20T08:17:02.270Z,15.84
2024-02-20T08:19:28.953Z,15.85
2024-02-20T08:21:55.677Z,15.84
2024-02-20T08:24:22.248Z,15.85
2024-02-20T08:26:48.913Z,15.85
2024-02-20T08:29:15.529Z,15.86
2024-02-20T08:31:45.285Z,15.86
2024-02-20T08:34:12.327Z,15.87
2024-02-20T08:36:39.918Z,15.86
2024-02-20T08:39:06.829Z,15.87
2024-02-20T08:41:33.615Z,15.87
2024-02-20T08:44:00.287Z,15.87
2024-02-20T08:46:27.076Z,15.86
2024-02-20T08:48:53.747Z,15.87
2024-02-20T08:51:20.330Z,15.86
2024-02-20T08:53:47.985Z,15.87
2024-02-20T08:56:14.763Z,15.87
2024-02-20T08:58:41.436Z,15.86
2024-02-20T09:01:08.128Z,15.88
2024-02-20T09:03:36.745Z,15.87
2024-02-20T09:06:04.258Z,15.89
2024-02-20T09:08:30.892Z,15.89
2024-02-20T09:10:59.597Z,15.89
2024-02-20T09:13:26.330Z,15.89
2024-02-20T09:15:54.293Z,15.90
2024-02-20T09:18:20.888Z,15.90
2024-02-20T09:20:47.519Z,15.91
2024-02-20T09:23:14.554Z,15.93
2024-02-20T09:25:44.894Z,15.93
2024-02-20T09:28:11.546Z,15.94
2024-02-20T09:30:38.212Z,15.95
2024-02-20T09:33:05.047Z,15.95
2024-02-20T09:35:31.703Z,15.97
2024-02-20T09:37:58.354Z,15.98
2024-02-20T09:40:25.704Z,16.00
2024-02-20T09:42:52.581Z,16.02
2024-02-20T09:45:21.321Z,16.03
2024-02-20T09:47:53.954Z,16.05
2024-02-20T09:50:23.689Z,16.07
2024-02-20T09:52:55.335Z,16.07
2024-02-20T09:55:26.524Z,16.08
2024-02-20T09:57:53.950Z,16.10
2024-02-20T10:00:21.536Z,16.12
2024-02-20T10:02:52.275Z,16.13
2024-02-20T10:05:19.713Z,16.15
2024-02-20T10:07:46.872Z,16.16
2024-02-20T10:10:17.410Z,16.17
2024-02-20T10:12:45.999Z,16.18
2024-02-20T10:15:14.485Z,16.19
2024-02-20T10:17:41.530Z,16.21
2024-02-20T10:20:13.074Z,16.22
2024-02-20T10:22:45.247Z,16.23
2024-02-20T10:25:14.855Z,16.23
2024-02-20T10:27:43.096Z,16.25
2024-02-20T10:30:10.222Z,16.24
2024-02-20T10:32:38.016Z,16.24
2024-02-20T10:35:11.291Z,16.24
2024-02-20T10:37:39.454Z,16.25
2024-02-20T10:40:17.668Z,16.26
2024-02-20T10:42:56.627Z,16.25
2024-02-20T10:45:24.244Z,16.26
2024-02-20T10:47:53.685Z,16.28
2024-02-20T10:50:20.803Z,16.28
2024-02-20T10:52:48.203Z,16.29
2024-02-20T10:55:26.925Z,16.30
2024-02-20T10:58:01.109Z,16.33
2024-02-20T11:00:28.329Z,16.33
2024-02-20T11:02:55.942Z,16.34
2024-02-20T11:05:25.122Z,16.36
2024-02-20T11:07:52.089Z,16.35
2024-02-20T11:10:20.528Z,16.37
2024-02-20T11:12:48.067Z,16.39
2024-02-20T11:15:22.079Z,16.41
2024-02-20T11:17:50.161Z,16.43
2024-02-20T11:20:21.780Z,16.44
2024-02-20T11:22:51.973Z,16.46
2024-02-20T11:25:26.748Z,16.48
2024-02-20T11:27:53.596Z,16.50
2024-02-20T11:30:22.423Z,16.52
2024-02-20T11:32:51.050Z,16.52
2024-02-20T11:35:21.537Z,16.53
2024-02-20T11:37:54.023Z,16.55
2024-02-20T11:40:26.926Z,16.54
2024-02-20T11:42:57.085Z,16.57
2024-02-20T11:45:27.020Z,16.57
2024-02-20T11:48:01.353Z,16.58
2024-02-20T11:50:29.906Z,16.60
2024-02-20T11:53:11.007Z,16.60
2024-02-20T11:55:42.220Z,16.63
2024-02-20T11:58:09.761Z,16.66
2024-02-20T12:00:38.560Z,16.68
2024-02-20T12:03:06.270Z,16.71
2024-02-20T12:05:43.337Z,16.72
2024-02-20T12:08:18.558Z,16.72
2024-02-20T12:10:47.391Z,16.75
2024-02-20T12:13:14.993Z,16.76
2024-02-20T12:15:43.076Z,16.78
2024-02-20T12:18:12.776Z,16.81
2024-02-20T12:20:39.515Z,16.84
2024-02-20T12:23:06.143Z,16.85
2024-02-20T12:25:32.755Z,16.86
2024-02-20T12:27:59.355Z,16.87
2024-02-20T12:30:25.940Z,16.88
2024-02-20T12:32:52.781Z,16.89
2024-02-20T12:35:19.458Z,16.89
2024-02-20T12:37:46.400Z,16.90
2024-02-20T12:40:16.514Z,16.91
2024-02-20T12:42:43.211Z,16.91
2024-02-20T12:45:10.813Z,16.92
2024-02-20T12:47:39.275Z,16.93
2024-02-20T12:50:07.875Z,16.96
2024-02-20T12:52:34.765Z,16.98
2024-02-20T12:55:03.607Z,17.00
2024-02-20T12:57:30.176Z,17.02
2024-02-20T12:59:56.764Z,17.03
2024-02-20T13:02:23.472Z,17.06
2024-02-20T13:04:50.264Z,17.08
2024-02-20T13:07:17.027Z,17.09
2024-02-20T13:09:43.615Z,17.11
2024-02-20T13:12:11.217Z,17.11
2024-02-20T13:14:37.896Z,17.12
2024-02-20T13:17:04.570Z,17.13
2024-02-20T13:19:31.415Z,17.14
2024-02-20T13:21:58.125Z,17.13
2024-02-20T13:24:24.717Z,17.13
2024-02-20T13:26:54.407Z,17.12
2024-02-20T13:29:21.115Z,17.11
2024-02-20T13:31:47.819Z,17.12
2024-02-20T13:34:14.508Z,17.12
2024-02-20T13:36:41.188Z,17.11
2024-02-20T13:39:08.234Z,17.10
2024-02-20T13:41:35.642Z,17.10
2024-02-20T13:44:06.722Z,17.10
2024-02-20T13:46:33.403Z,17.09
2024-02-20T13:49:02.008Z,17.09
2024-02-20T13:51:30.044Z,17.07
2024-02-20T13:53:56.667Z,17.06
2024-02-20T13:56:24.730Z,17.05
2024-02-20T13:58:51.461Z,17.04
2024-02-20T14:01:18.262Z,17.05
2024-02-20T14:03:45.300Z,17.04
2024-02-20T14:06:11.957Z,17.03
2024-02-20T14:08:42.733Z,17.02
2024-02-20T14:11:12.363Z,17.01
2024-02-20T14:13:38.983Z,17.02
2024-02-20T14:16:05.809Z,17.01
2024-02-20T14:18:32.402Z,17.01
2024-02-20T14:21:00.564Z,16.99
2024-02-20T14:23:27.156Z,16.99
2024-02-20T14:25:53.916Z,16.98
2024-02-20T14:28:21.754Z,16.99
2024-02-20T14:30:54.129Z,16.98
2024-02-20T14:33:28.549Z,16.97
2024-02-20T14:35:55.156Z,16.97
2024-02-20T14:38:22.245Z,16.94
2024-02-20T14:40:50.854Z,16.95
2024-02-20T14:43:19.016Z,16.94
2024-02-20T14:45:46.716Z,16.92
2024-02-20T14:48:13.320Z,16.91
2024-02-20T14:50:40.092Z,16.90
2024-02-20T14:53:08.155Z,16.90
2024-02-20T14:55:35.468Z,16.90
2024-02-20T14:58:05.902Z,16.89
2024-02-20T15:00:32.907Z,16.87
2024-02-20T15:02:59.619Z,16.87
2024-02-20T15:05:26.349Z,16.85
2024-02-20T15:07:53.147Z,16.84
2024-02-20T15:10:19.887Z,16.83
2024-02-20T15:12:46.549Z,16.83
2024-02-20T15:15:15.340Z,16.82
2024-02-20T15:17:43.705Z,16.81
2024-02-20T15:20:11.783Z,16.81
2024-02-20T15:22:38.815Z,16.79
2024-02-20T15:25:10.724Z,16.78
2024-02-20T15:27:38.714Z,16.77
2024-02-20T15:30:05.866Z,16.77
2024-02-20T15:32:32.568Z,16.76
2024-02-20T15:34:59.994Z,16.75
2024-02-20T15:37:28.183Z,16.74
2024-02-20T15:39:54.847Z,16.73
2024-02-20T15:42:21.901Z,16.71
2024-02-20T15:44:48.577Z,16.70
2024-02-20T15:47:15.125Z,16.69
2024-02-20T15:49:44.101Z,16.69
2024-02-20T15:52:11.556Z,16.68
2024-02-20T15:54:38.155Z,16.67
2024-02-20T15:57:05.130Z,16.66
2024-02-20T15:59:31.696Z,16.65
2024-02-20T16:01:59.903Z,16.65
2024-02-20T16:04:26.631Z,16.63
2024-02-20T16:06:53.368Z,16.63
2024-02-20T16:09:20.794Z,16.61
2024-02-20T16:11:47.661Z,16.61
2024-02-20T16:14:14.323Z,16.61
2024-02-20T16:16:40.978Z,16.60
2024-02-20T16:19:07.731Z,16.58
2024-02-20T16:21:34.515Z,16.58
2024-02-20T16:24:01.155Z,16.58
2024-02-20T16:26:29.215Z,16.57
2024-02-20T16:28:56.234Z,16.57
2024-02-20T16:31:23.601Z,16.57
2024-02-20T16:33:51.901Z,16.57
2024-02-20T16:36:18.771Z,16.55
2024-02-20T16:38:45.975Z,16.55
2024-02-20T16:41:12.567Z,16.54
2024-02-20T16:43:39.185Z,16.54
2024-02-20T16:46:07.208Z,16.53
2024-02-20T16:48:35.278Z,16.53
2024-02-20T16:51:02.008Z,16.53
2024-02-20T16:53:31.771Z,16.51
2024-02-20T16:55:58.422Z,16.51
2024-02-20T16:58:25.067Z,16.51
2024-02-20T17:00:51.778Z,16.51
2024-02-20T17:03:18.338Z,16.49
2024-02-20T17:05:45.408Z,16.50
2024-02-20T17:08:12.272Z,16.51
2024-02-20T17:10:39.104Z,16.50
2024-02-20T17:13:05.691Z,16.50
2024-02-20T17:15:32.304Z,16.49
2024-02-20T17:17:58.995Z,16.50
2024-02-20T17:20:26.349Z,16.50
2024-02-20T17:22:54.690Z,16.49
2024-02-20T17:25:22.193Z,16.49
2024-02-20T17:27:48.878Z,16.49
2024-02-20T17:30:15.745Z,16.49
2024-02-20T17:32:42.374Z,16.49
2024-02-20T17:35:09.331Z,16.48
2024-02-20T17:37:35.955Z,16.49
2024-02-20T17:40:02.544Z,16.50
2024-02-20T17:42:29.114Z,16.48
2024-02-20T17:44:55.730Z,16.47
2024-02-20T17:47:22.470Z,16.47
2024-02-20T17:49:52.985Z,16.48
2024-02-20T17:52:19.770Z,16.47
2024-02-20T17:54:46.408Z,16.47
2024-02-20T17:57:17.617Z,16.46
2024-02-20T17:59:45.073Z,16.47
2024-02-20T18:02:11.755Z,16.47
2024-02-20T18:04:38.606Z,16.46
2024-02-20T18:07:05.419Z,16.46
2024-02-20T18:09:32.486Z,16.47
2024-02-20T18:11:59.169Z,16.46
2024-02-20T18:14:26.532Z,16.47
2024-02-20T18:16:53.237Z,16.47
2024-02-20T18:21:47.572Z,16.47
2024-02-20T18:24:14.133Z,16.46
2024-02-20T18:26:40.756Z,16.47
2024-02-20T18:29:07.372Z,16.47
2024-02-20T18:31:34.098Z,16.46
2024-02-20T18:34:00.814Z,16.46
2024-02-20T18:36:27.514Z,16.47
2024-02-20T18:38:54.133Z,16.47
2024-02-20T18:41:21.958Z,16.46
2024-02-20T18:43:48.728Z,16.47
2024-02-20T18:46:15.881Z,16.46
2024-02-20T18:48:42.629Z,16.46
2024-02-20T18:51:09.266Z,16.47
2024-02-20T18:53:35.848Z,16.46
2024-02-20T18:56:02.530Z,16.46
2024-02-20T18:58:32.090Z,16.45
2024-02-20T19:01:00.010Z,16.44
2024-02-20T19:03:26.692Z,16.45
2024-02-20T19:05:53.337Z,16.44
2024-02-20T19:08:19.967Z,16.44
2024-02-20T19:10:46.527Z,16.43
2024-02-20T19:13:13.134Z,16.43
2024-02-20T19:15:39.753Z,16.43
2024-02-20T19:18:06.444Z,16.42
2024-02-20T19:20:33.209Z,16.42
2024-02-20T19:22:59.948Z,16.43
2024-02-20T19:25:26.744Z,16.42
2024-02-20T19:27:53.322Z,16.42
2024-02-20T19:30:20.502Z,16.42
2024-02-20T19:32:48.272Z,16.41
2024-02-20T19:35:14.914Z,16.41
2024-02-20T19:37:41.586Z,16.42
2024-02-20T19:40:09.188Z,16.42
2024-02-20T19:42:35.755Z,16.42
2024-02-20T19:45:03.882Z,16.42
2024-02-20T19:47:30.551Z,16.42
2024-02-20T19:49:57.222Z,16.42
2024-02-20T19:52:23.872Z,16.42
2024-02-20T19:54:50.537Z,16.40
2024-02-20T19:57:17.158Z,16.40
2024-02-20T19:59:47.383Z,16.39
2024-02-20T20:02:13.990Z,16.39
2024-02-20T20:04:40.701Z,16.39
2024-02-20T20:07:07.513Z,16.38
2024-02-20T20:09:34.194Z,16.38
2024-02-20T20:12:00.857Z,16.39
2024-02-20T20:14:27.487Z,16.37
2024-02-20T20:16:54.273Z,16.38
2024-02-20T20:19:21.051Z,16.38
2024-02-20T20:21:49.199Z,16.38
2024-02-20T20:24:18.306Z,16.37
2024-02-20T20:26:50.523Z,16.38
2024-02-20T20:29:17.155Z,16.38
2024-02-20T20:31:43.903Z,16.39
2024-02-20T20:34:11.182Z,16.39
2024-02-20T20:36:38.640Z,16.39
2024-02-20T20:39:06.590Z,16.38
2024-02-20T20:41:35.569Z,16.39
2024-02-20T20:44:02.340Z,16.39
2024-02-20T20:46:29.520Z,16.39
2024-02-20T20:48:56.276Z,16.38
2024-02-20T20:51:22.927Z,16.38
2024-02-20T20:53:49.476Z,16.39
2024-02-20T20:56:16.021Z,16.40
2024-02-20T20:58:42.665Z,16.40
2024-02-20T21:01:09.370Z,16.40
2024-02-20T21:03:36.392Z,16.40
2024-02-20T21:06:03.447Z,16.40
2024-02-20T21:08:30.350Z,16.40
2024-02-20T21:10:57.107Z,16.40
2024-02-20T21:13:23.846Z,16.39
2024-02-20T21:15:50.685Z,16.40
2024-02-20T21:18:17.432Z,16.39
2024-02-20T21:20:44.943Z,16.40
2024-02-20T21:23:16.589Z,16.39
2024-02-20T21:25:43.933Z,16.39
2024-02-20T21:28:10.617Z,16.40
2024-02-20T21:30:42.671Z,16.40
2024-02-20T21:33:09.955Z,16.41
2024-02-20T21:35:37.040Z,16.40
2024-02-20T21:38:03.764Z,16.40
2024-02-20T21:40:30.430Z,16.40
2024-02-20T21:42:57.155Z,16.40
2024-02-20T21:45:23.724Z,16.40
2024-02-20T21:47:51.556Z,16.40
2024-02-20T21:50:19.759Z,16.41
2024-02-20T21:52:46.382Z,16.41
2024-02-20T21:55:14.804Z,16.41
2024-02-20T21:57:42.636Z,16.41
2024-02-20T22:00:10.820Z,16.41
2024-02-20T22:02:37.398Z,16.40
2024-02-20T22:05:04.719Z,16.40
2024-02-20T22:07:31.503Z,16.39
2024-02-20T22:09:59.837Z,16.41
2024-02-20T22:12:26.397Z,16.40
2024-02-20T22:14:52.910Z,16.40
2024-02-20T22:17:19.514Z,16.40
2024-02-20T22:19:46.118Z,16.40
2024-02-20T22:22:12.767Z,16.39
2024-02-20T22:24:39.425Z,16.40
2024-02-20T22:27:06.044Z,16.39
2024-02-20T22:29:32.607Z,16.39
2024-02-20T22:31:59.396Z,16.38
2024-02-20T22:34:26.668Z,16.39
2024-02-20T22:36:53.399Z,16.39
2024-02-20T22:39:20.072Z,16.38
2024-02-20T22:41:50.049Z,16.37
2024-02-20T22:44:16.677Z,16.38
2024-02-20T22:46:44.460Z,16.37
2024-02-20T22:49:11.410Z,16.37
2024-02-20T22:51:38.136Z,16.37
2024-02-20T22:54:05.315Z,16.36
2024-02-20T22:56:32.196Z,16.35
2024-02-20T22:58:58.953Z,16.34
2024-02-20T23:01:25.729Z,16.35
2024-02-20T23:03:52.552Z,16.35
2024-02-20T23:06:19.285Z,16.33
2024-02-20T23:08:46.071Z,16.33
2024-02-20T23:11:13.610Z,16.32
2024-02-20T23:13:40.507Z,16.32
2024-02-20T23:16:07.234Z,16.32
2024-02-20T23:18:33.937Z,16.31
2024-02-20T23:21:00.483Z,16.29
2024-02-20T23:23:27.029Z,16.30
2024-02-20T23:25:53.689Z,16.32
2024-02-20T23:28:20.445Z,16.31
2024-02-20T23:30:47.021Z,16.30
2024-02-20T23:33:13.792Z,16.32
2024-02-20T23:35:40.925Z,16.30
2024-02-20T23:38:07.550Z,16.31
2024-02-20T23:40:34.162Z,16.29
2024-02-20T23:43:00.782Z,16.28
2024-02-20T23:45:27.806Z,16.30
2024-02-20T23:47:54.512Z,16.30
2024-02-20T23:50:21.120Z,16.29
2024-02-20T23:52:47.845Z,16.29
2024-02-20T23:55:14.626Z,16.29
2024-02-20T23:57:41.245Z,16.28
